LFRU/MXN METAR and TAF weather

Enter ICAO airport designator
Station Type Date Time Source
LFRU METAR 2022/01/29 13:00 UTC NOAA

LFRU 291300Z AUTO 27011KT 250V310 9999 BKN015 OVC020 10/08 Q1036


Station Type Date Time Source
LFRU Decoded METAR 2022/01/29 13:00 UTC NOAA

Morlaix / Ploujean, France (LFRU) 48-36N 003-49W
Jan 29, 2022 - 08:00 AM EST / 2022.01.29 1300 UTC
Wind: from the W (270 degrees) at 13 MPH (11 KT) (direction variable):0
Visibility: greater than 7 mile(s):0
Sky conditions: overcast
Temperature: 50 F (10 C)
Dew Point: 46 F (8 C)
Relative Humidity: 87%
Pressure (altimeter): 30.59 in. Hg (1036 hPa)
ob: LFRU 291300Z AUTO 27011KT 250V310 9999 BKN015 OVC020 10/08 Q1036
cycle: 13

Station Type Date Time Source
LFRU TAF UTC NOAA

Error!

Example: see airport list